Observations for REGGIO CALABRIA AFB, Italy (LICR)

LICR 260450Z 06005KT CAVOK 24/15 Q1015  
LICR 260350Z 04006KT CAVOK 24/17 Q1015  
LICR 252150Z 04006KT CAVOK 26/20 Q1015  
LICR 252050Z 04005KT 350V080 CAVOK 26/21 Q1016  
LICR 251950Z 36008KT CAVOK 27/22 Q1016  
LICR 251850Z 36008KT CAVOK 27/22 Q1015  
LICR 251750Z 35012KT CAVOK 27/22 Q1014  
LICR 251650Z 34010KT CAVOK 29/21 Q1014  
LICR 251550Z 35009KT CAVOK 30/22 Q1014  
LICR 251450Z 29007KT 260V320 CAVOK 30/22 Q1014  
LICR 251350Z 22004KT 190V260 CAVOK 31/18 Q1015  
LICR 251250Z 25005KT 9999 FEW050 30/20 Q1015
LICR 251150Z 21004KT 160V250 9999 FEW050 30/20 Q1015
LICR 251050Z 27005KT 200V310 CAVOK 33/17 Q1015  
LICR 250950Z 29006KT 250V010 CAVOK 31/18 Q1016  
LICR 250850Z VRB05KT CAVOK 31/20 Q1016  
LICR 250750Z 36006KT 310V030 CAVOK 30/21 Q1016  
LICR 250650Z 34006KT 310V020 CAVOK 29/20 Q1016  
LICR 250550Z 05005KT CAVOK 27/15 Q1016  
LICR 250450Z 04005KT CAVOK 24/15 Q1015